createdAt,value
2023-04-02T00:01:18.227Z,1.10
2023-04-02T00:04:08.995Z,2.60
2023-04-02T00:06:44.796Z,1.00
2023-04-02T00:09:24.934Z,1.13
2023-04-02T00:11:55.802Z,1.65
2023-04-02T00:14:25.772Z,1.90
2023-04-02T00:16:54.416Z,2.45
2023-04-02T00:19:26.245Z,17.48
2023-04-02T00:21:54.900Z,18.85
2023-04-02T00:24:23.636Z,1.90
2023-04-02T00:26:52.591Z,1.80
2023-04-02T00:29:22.290Z,3.58
2023-04-02T00:31:53.091Z,3.97
2023-04-02T00:34:22.718Z,1.52
2023-04-02T00:36:51.927Z,1.70
2023-04-02T00:39:22.136Z,1.08
2023-04-02T00:41:54.531Z,16.60
2023-04-02T00:44:24.405Z,8.82
2023-04-02T00:46:53.075Z,4.20
2023-04-02T00:49:24.092Z,3.08
2023-04-02T00:51:54.172Z,1.70
2023-04-02T00:54:25.666Z,1.85
2023-04-02T00:56:55.335Z,2.20
2023-04-02T00:59:28.034Z,6.00
2023-04-02T01:02:02.428Z,2.28
2023-04-02T01:04:34.503Z,5.40
2023-04-02T01:07:06.353Z,5.85
2023-04-02T01:09:42.908Z,4.45
2023-04-02T01:12:26.784Z,2.70
2023-04-02T01:15:01.748Z,1.20
2023-04-02T01:17:37.274Z,3.72
2023-04-02T01:20:27.011Z,1.95
2023-04-02T01:22:59.595Z,2.83
2023-04-02T01:25:31.113Z,2.50
2023-04-02T01:28:05.564Z,2.67
2023-04-02T01:30:36.608Z,2.38
2023-04-02T01:33:05.489Z,2.03
2023-04-02T01:35:35.997Z,2.60
2023-04-02T01:38:08.333Z,3.10
2023-04-02T01:40:39.500Z,4.60
2023-04-02T01:43:13.921Z,2.85
2023-04-02T01:45:43.796Z,2.92
2023-04-02T01:48:16.680Z,4.20
2023-04-02T01:50:46.481Z,2.70
2023-04-02T01:53:16.505Z,5.22
2023-04-02T01:55:46.900Z,3.20
2023-04-02T01:58:16.209Z,3.40
2023-04-02T02:00:47.963Z,3.55
2023-04-02T02:03:17.506Z,3.40
2023-04-02T02:05:46.334Z,4.10
2023-04-02T02:08:21.993Z,3.80
2023-04-02T02:10:51.578Z,3.42
2023-04-02T02:13:20.012Z,3.47
2023-04-02T02:15:49.936Z,3.35
2023-04-02T02:18:23.230Z,3.97
2023-04-02T02:20:52.406Z,3.65
2023-04-02T02:23:20.809Z,3.30
2023-04-02T02:25:49.325Z,3.53
2023-04-02T02:28:19.080Z,3.08
2023-04-02T02:30:48.671Z,3.47
2023-04-02T02:33:20.820Z,3.42
2023-04-02T02:35:52.069Z,3.25
2023-04-02T02:38:28.595Z,3.55
2023-04-02T02:41:04.437Z,3.40
2023-04-02T02:43:33.132Z,2.92
2023-04-02T02:46:02.975Z,3.78
2023-04-02T02:48:36.630Z,3.60
2023-04-02T02:51:08.143Z,3.10
2023-04-02T02:53:46.969Z,3.28
2023-04-02T02:56:16.013Z,3.35
2023-04-02T02:58:45.717Z,3.25
2023-04-02T03:01:22.496Z,3.33
2023-04-02T03:03:56.436Z,3.10
2023-04-02T03:06:26.592Z,2.75
2023-04-02T03:09:03.089Z,3.50
2023-04-02T03:11:38.231Z,3.28
2023-04-02T03:14:17.028Z,3.50
2023-04-02T03:16:48.322Z,3.00
2023-04-02T03:19:25.678Z,3.58
2023-04-02T03:21:56.627Z,4.50
2023-04-02T03:24:36.823Z,3.33
2023-04-02T03:27:08.448Z,4.30
2023-04-02T03:29:38.932Z,4.70
2023-04-02T03:32:09.582Z,9.60
2023-04-02T03:34:43.142Z,16.10
2023-04-02T03:37:15.854Z,9.00
2023-04-02T03:39:45.439Z,10.45
2023-04-02T03:42:16.192Z,5.95
2023-04-02T03:44:47.115Z,5.63
2023-04-02T03:47:19.717Z,3.58
2023-04-02T03:49:53.758Z,3.70
2023-04-02T03:52:24.540Z,3.20
2023-04-02T03:54:54.506Z,3.22
2023-04-02T03:57:27.567Z,3.20
2023-04-02T03:59:57.813Z,4.03
2023-04-02T04:02:34.932Z,4.00
2023-04-02T04:05:06.939Z,3.30
2023-04-02T04:07:37.101Z,3.10
2023-04-02T04:10:06.391Z,3.28
2023-04-02T04:12:36.573Z,2.92
2023-04-02T04:15:09.587Z,2.65
2023-04-02T04:17:53.996Z,3.30
2023-04-02T04:20:33.767Z,3.20
2023-04-02T04:23:13.208Z,3.15
2023-04-02T04:25:42.160Z,3.33
2023-04-02T04:28:21.519Z,3.38
2023-04-02T04:30:52.548Z,3.00
2023-04-02T04:33:24.898Z,2.80
2023-04-02T04:36:00.995Z,3.28
2023-04-02T04:38:35.591Z,3.28
2023-04-02T04:41:06.597Z,3.33
2023-04-02T04:43:45.702Z,3.78
2023-04-02T04:46:16.436Z,3.45
2023-04-02T04:48:49.777Z,3.17
2023-04-02T04:51:22.364Z,3.38
2023-04-02T04:53:51.994Z,3.42
2023-04-02T04:56:24.139Z,3.53
2023-04-02T04:59:00.233Z,3.85
2023-04-02T05:01:35.346Z,3.50
2023-04-02T05:04:07.449Z,3.80
2023-04-02T05:06:40.897Z,3.75
2023-04-02T05:09:14.741Z,3.28
2023-04-02T05:11:46.263Z,3.35
2023-04-02T05:14:20.316Z,3.63
2023-04-02T05:16:53.049Z,3.33
2023-04-02T05:19:25.350Z,3.30
2023-04-02T05:21:58.686Z,3.75
2023-04-02T05:24:45.357Z,3.25
2023-04-02T05:27:20.476Z,3.35
2023-04-02T05:29:51.709Z,3.70
2023-04-02T05:32:22.602Z,3.55
2023-04-02T05:34:54.827Z,3.22
2023-04-02T05:37:28.197Z,3.42
2023-04-02T05:39:57.728Z,3.53
2023-04-02T05:42:29.016Z,3.33
2023-04-02T05:45:06.950Z,3.90
2023-04-02T05:47:40.875Z,3.20
2023-04-02T05:50:19.897Z,3.25
2023-04-02T05:52:53.927Z,3.50
2023-04-02T05:55:40.873Z,3.33
2023-04-02T05:58:34.586Z,3.38
2023-04-02T06:01:17.489Z,3.97
2023-04-02T06:03:51.251Z,3.58
2023-04-02T06:06:24.813Z,3.63
2023-04-02T06:08:58.475Z,3.38
2023-04-02T06:11:32.047Z,3.72
2023-04-02T06:14:06.215Z,3.58
2023-04-02T06:16:36.797Z,3.20
2023-04-02T06:19:08.366Z,3.30
2023-04-02T06:21:45.176Z,3.40
2023-04-02T06:24:18.939Z,3.97
2023-04-02T06:26:49.781Z,3.50
2023-04-02T06:29:22.316Z,4.10
2023-04-02T06:31:52.884Z,4.38
2023-04-02T06:34:24.096Z,2.25
2023-04-02T06:37:17.287Z,1.00
2023-04-02T06:39:48.082Z,0.63
2023-04-02T06:42:21.141Z,0.57
2023-04-02T06:45:04.141Z,0.60
2023-04-02T06:47:36.855Z,0.52
2023-04-02T06:50:09.761Z,0.55
2023-04-02T06:52:40.435Z,0.47
2023-04-02T06:55:25.488Z,1.00
2023-04-02T06:57:54.284Z,1.10
2023-04-02T07:00:27.065Z,0.70
2023-04-02T07:02:57.428Z,0.75
2023-04-02T07:05:26.923Z,0.90
2023-04-02T07:07:55.905Z,0.60
2023-04-02T07:10:26.141Z,0.60
2023-04-02T07:12:54.927Z,0.35
2023-04-02T07:15:25.480Z,0.40
2023-04-02T07:17:57.258Z,0.77
2023-04-02T07:20:27.916Z,0.40
2023-04-02T07:23:09.394Z,0.40
2023-04-02T07:25:46.347Z,0.50
2023-04-02T07:28:18.890Z,0.50
2023-04-02T07:30:48.111Z,1.20
2023-04-02T07:33:16.818Z,0.60
2023-04-02T07:35:46.186Z,0.35
2023-04-02T07:38:19.009Z,0.30
2023-04-02T07:40:50.993Z,0.40
2023-04-02T07:43:20.693Z,0.40
2023-04-02T07:45:49.521Z,0.30
2023-04-02T07:48:18.806Z,0.30
2023-04-02T07:50:47.613Z,0.65
2023-04-02T07:53:35.026Z,0.30
2023-04-02T07:56:09.293Z,0.50
2023-04-02T07:58:40.273Z,1.20
2023-04-02T08:01:19.464Z,0.77
2023-04-02T08:03:54.395Z,0.52
2023-04-02T08:06:32.523Z,0.80
2023-04-02T08:09:01.476Z,0.88
2023-04-02T08:11:31.966Z,0.75
2023-04-02T08:14:01.528Z,0.50
2023-04-02T08:16:30.541Z,1.00
2023-04-02T08:18:59.109Z,1.20
2023-04-02T08:21:28.012Z,1.40
2023-04-02T08:23:56.689Z,0.77
2023-04-02T08:26:26.076Z,0.80
2023-04-02T08:28:56.239Z,0.80
2023-04-02T08:31:25.271Z,0.70
2023-04-02T08:38:02.834Z,0.70
2023-04-02T08:40:32.968Z,0.45
2023-04-02T08:43:15.054Z,0.90
2023-04-02T08:45:54.495Z,0.70
2023-04-02T08:48:23.383Z,0.70
2023-04-02T08:50:52.180Z,0.50
2023-04-02T08:53:22.958Z,0.95
2023-04-02T08:55:59.768Z,0.80
2023-04-02T08:58:37.878Z,0.70
2023-04-02T09:01:08.144Z,1.00
2023-04-02T09:03:38.356Z,2.40
2023-04-02T09:06:09.873Z,0.90
2023-04-02T09:08:38.672Z,1.15
2023-04-02T09:11:08.752Z,1.17
2023-04-02T09:13:39.156Z,1.20
2023-04-02T09:16:11.413Z,1.42
2023-04-02T09:18:40.732Z,0.70
2023-04-02T09:21:18.415Z,2.80
2023-04-02T09:23:46.839Z,1.20
2023-04-02T09:26:22.620Z,1.30
2023-04-02T09:28:52.150Z,1.30
2023-04-02T09:31:23.958Z,1.25
2023-04-02T09:33:54.678Z,1.80
2023-04-02T09:36:34.730Z,2.90
2023-04-02T09:39:06.783Z,0.80
2023-04-02T09:41:37.052Z,1.10
2023-04-02T09:44:20.534Z,0.95
2023-04-02T09:46:52.866Z,0.85
2023-04-02T09:49:24.115Z,0.93
2023-04-02T09:52:09.725Z,0.70
2023-04-02T09:54:41.920Z,1.40
2023-04-02T09:57:21.075Z,1.00
2023-04-02T09:59:49.501Z,1.60
2023-04-02T10:02:30.247Z,1.15
2023-04-02T15:52:51.444Z,4.25
2023-04-02T15:55:23.550Z,5.00
2023-04-02T15:58:06.740Z,4.32
2023-04-02T16:00:41.672Z,5.00
2023-04-02T16:03:26.400Z,3.67
2023-04-02T16:06:14.621Z,4.00
2023-04-02T16:08:57.259Z,3.92
2023-04-02T16:11:30.976Z,4.10
2023-04-02T16:14:11.224Z,7.07
2023-04-02T16:16:48.783Z,9.43
2023-04-02T16:19:27.701Z,4.78
2023-04-02T16:22:02.674Z,4.40
2023-04-02T16:24:45.399Z,3.70
2023-04-02T16:27:28.134Z,9.32
2023-04-02T16:29:59.912Z,3.85
2023-04-02T16:32:44.815Z,4.40
2023-04-02T16:35:42.644Z,3.80
2023-04-02T16:38:38.680Z,4.30
2023-04-02T16:41:33.820Z,5.32
2023-04-02T16:44:16.380Z,3.83
2023-04-02T16:46:53.699Z,4.05
2023-04-02T16:49:27.564Z,3.33
2023-04-02T16:52:02.846Z,3.20
2023-04-02T16:54:36.129Z,3.15
2023-04-02T16:57:27.277Z,3.00
2023-04-02T17:00:04.337Z,3.60
2023-04-02T17:02:45.387Z,2.95
2023-04-02T17:05:22.147Z,3.30
2023-04-02T17:07:56.662Z,3.53
2023-04-02T17:10:29.918Z,3.70
2023-04-02T17:13:03.802Z,3.10
2023-04-02T17:15:38.003Z,3.40
2023-04-02T17:18:12.427Z,3.05
2023-04-02T17:20:43.447Z,3.05
2023-04-02T17:23:18.644Z,3.33
2023-04-02T17:25:55.208Z,3.33
2023-04-02T17:28:36.944Z,3.10
2023-04-02T17:31:08.084Z,4.00
2023-04-02T17:33:36.648Z,3.05
2023-04-02T17:36:09.606Z,3.70
2023-04-02T17:38:41.407Z,3.10
2023-04-02T17:41:14.087Z,3.20
2023-04-02T17:43:46.678Z,3.05
2023-04-02T17:46:19.700Z,3.45
2023-04-02T17:48:48.817Z,4.35
2023-04-02T17:51:19.624Z,3.58
2023-04-02T17:53:51.902Z,3.60
2023-04-02T17:56:43.893Z,3.60
2023-04-02T17:59:27.715Z,3.30
2023-04-02T18:02:01.436Z,3.42
2023-04-02T18:04:35.328Z,3.78
2023-04-02T18:07:22.812Z,3.53
2023-04-02T18:09:55.699Z,4.05
2023-04-02T18:12:29.936Z,3.72
2023-04-02T18:15:05.546Z,3.63
2023-04-02T18:17:40.836Z,3.83
2023-04-02T18:20:18.046Z,3.60
2023-04-02T18:22:50.165Z,3.78
2023-04-02T18:25:24.595Z,3.50
2023-04-02T18:27:59.122Z,3.45
2023-04-02T18:30:30.374Z,3.70
2023-04-02T18:33:17.846Z,3.20
2023-04-02T18:35:53.428Z,3.72
2023-04-02T18:38:25.582Z,3.45
2023-04-02T18:41:02.954Z,3.67
2023-04-02T18:43:36.044Z,3.13
2023-04-02T18:46:07.342Z,3.20
2023-04-02T18:48:41.752Z,3.67
2023-04-02T18:51:12.499Z,3.63
2023-04-02T18:53:41.127Z,3.58
2023-04-02T18:56:12.153Z,4.05
2023-04-02T18:58:43.896Z,3.70
2023-04-02T19:01:16.119Z,4.03
2023-04-02T19:03:46.784Z,3.33
2023-04-02T19:06:19.096Z,3.17
2023-04-02T19:08:49.812Z,2.80
2023-04-02T19:11:20.151Z,3.40
2023-04-02T19:13:51.277Z,3.30
2023-04-02T19:16:26.324Z,3.28
2023-04-02T19:19:01.649Z,2.67
2023-04-02T19:21:34.953Z,3.88
2023-04-02T19:24:06.007Z,3.15
2023-04-02T19:26:37.434Z,3.03
2023-04-02T19:29:12.457Z,2.80
2023-04-02T19:31:49.145Z,2.50
2023-04-02T19:34:22.174Z,2.70
2023-04-02T19:36:54.602Z,2.92
2023-04-02T19:39:41.623Z,3.10
2023-04-02T19:42:13.894Z,9.20
2023-04-02T19:44:44.536Z,2.70
2023-04-02T19:47:14.726Z,2.60
2023-04-02T19:49:43.289Z,3.50
2023-04-02T19:52:11.705Z,2.80
2023-04-02T19:54:40.075Z,3.00
2023-04-02T19:57:08.511Z,2.40
2023-04-02T19:59:37.683Z,2.53
2023-04-02T20:02:10.272Z,2.45
2023-04-02T20:04:40.618Z,2.30
2023-04-02T20:07:09.066Z,2.10
2023-04-02T20:09:37.456Z,2.15
2023-04-02T20:12:06.032Z,2.30
2023-04-02T20:14:34.352Z,2.10
2023-04-02T20:17:02.866Z,2.10
2023-04-02T20:19:31.847Z,1.88
2023-04-02T20:22:01.516Z,1.92
2023-04-02T20:24:29.903Z,2.40
2023-04-02T20:26:58.204Z,2.13
2023-04-02T20:29:28.103Z,2.15
2023-04-02T20:31:56.933Z,2.22
2023-04-02T20:34:25.907Z,2.08
2023-04-02T20:36:54.616Z,2.65
2023-04-02T20:39:24.356Z,2.35
2023-04-02T20:41:52.697Z,2.45
2023-04-02T20:44:21.372Z,2.20
2023-04-02T20:46:49.652Z,1.98
2023-04-02T20:49:17.924Z,2.05
2023-04-02T20:51:47.360Z,2.88
2023-04-02T20:54:16.832Z,2.40
2023-04-02T20:56:46.578Z,2.70
2023-04-02T20:59:14.941Z,2.20
2023-04-02T21:01:44.754Z,2.60
2023-04-02T21:04:14.167Z,2.45
2023-04-02T21:06:42.615Z,2.20
2023-04-02T21:09:14.387Z,2.25
2023-04-02T21:11:43.168Z,2.45
2023-04-02T21:14:12.827Z,2.17
2023-04-02T21:16:41.357Z,2.30
2023-04-02T21:19:10.729Z,1.98
2023-04-02T21:21:40.414Z,2.40
2023-04-02T21:24:09.601Z,1.98
2023-04-02T21:26:39.024Z,2.38
2023-04-02T21:29:07.490Z,2.40
2023-04-02T21:31:37.975Z,2.28
2023-04-02T21:34:07.220Z,2.30
2023-04-02T21:36:36.368Z,2.05
2023-04-02T21:39:06.455Z,2.63
2023-04-02T21:41:35.562Z,1.98
2023-04-02T21:44:04.619Z,2.13
2023-04-02T21:46:41.968Z,1.95
2023-04-02T21:49:12.104Z,2.10
2023-04-02T21:51:41.315Z,1.48
2023-04-02T21:54:09.867Z,2.10
2023-04-02T21:56:39.074Z,1.85
2023-04-02T21:59:08.214Z,1.70
2023-04-02T22:01:46.536Z,1.77
2023-04-02T22:04:18.474Z,1.98
2023-04-02T22:06:47.698Z,1.92
2023-04-02T22:09:16.989Z,1.65
2023-04-02T22:11:46.618Z,1.52
2023-04-02T22:14:14.915Z,1.42
2023-04-02T22:16:43.637Z,1.83
2023-04-02T22:19:13.115Z,1.70
2023-04-02T22:21:43.333Z,1.90
2023-04-02T22:24:14.165Z,1.70
2023-04-02T22:26:42.509Z,1.80
2023-04-02T22:29:10.924Z,1.77
2023-04-02T22:31:39.543Z,1.65
2023-04-02T22:34:08.177Z,1.73
2023-04-02T22:36:36.478Z,1.50
2023-04-02T22:39:09.679Z,1.77
2023-04-02T22:41:38.202Z,1.45
2023-04-02T22:44:06.750Z,1.67
2023-04-02T22:46:35.558Z,1.67
2023-04-02T22:49:04.449Z,1.63
2023-04-02T22:51:32.778Z,1.75
2023-04-02T22:54:01.191Z,1.70
2023-04-02T22:56:41.484Z,1.70
2023-04-02T22:59:09.815Z,1.63
2023-04-02T23:01:38.227Z,2.22
2023-04-02T23:04:06.787Z,1.70
2023-04-02T23:06:35.355Z,1.73
2023-04-02T23:09:04.104Z,1.70
2023-04-02T23:11:33.855Z,1.83
2023-04-02T23:14:02.167Z,1.50
2023-04-02T23:16:30.845Z,1.63
2023-04-02T23:19:00.139Z,1.70
2023-04-02T23:21:28.490Z,1.50
2023-04-02T23:23:57.136Z,1.80
2023-04-02T23:26:26.531Z,1.40
2023-04-02T23:28:56.647Z,2.13
2023-04-02T23:31:25.851Z,1.58
2023-04-02T23:33:54.192Z,1.60
2023-04-02T23:36:23.442Z,1.50
2023-04-02T23:38:55.345Z,1.83
2023-04-02T23:41:24.954Z,1.35
2023-04-02T23:43:53.326Z,1.48
2023-04-02T23:46:23.310Z,1.40
2023-04-02T23:48:51.785Z,1.35
2023-04-02T23:51:20.500Z,1.42
2023-04-02T23:53:48.882Z,1.65
2023-04-02T23:56:17.596Z,1.85
2023-04-02T23:58:46.235Z,1.92
